Time;durP1;ratioP1;P1;durP2;ratioP2;P2;SDS_P1;SDS_P2;PMS_P1;PMS_P2;Temp;Humidity;BMP_temperature;BMP_pressure;BME280_temperature;BME280_humidity;BME280_pressure;Samples;Min_cycle;Max_cycle;Signal;HPM_P1;HPM_P2
2021/01/02 00:00:07;;;;;;;10.88;2.38;;;23.10;45.90;;;;;;6397779;22;20401;-69
2021/01/02 00:03:11;;;;;;;6.28;2.33;;;23.20;45.90;;;;;;6399023;22;20001;-73
2021/01/02 00:06:32;;;;;;;8.05;2.35;;;23.10;45.80;;;;;;6391686;22;20016;-72
2021/01/02 00:09:05;;;;;;;13.82;2.58;;;23.10;45.80;;;;;;6397737;22;20068;-75
2021/01/02 00:11:41;;;;;;;7.15;2.80;;;23.10;45.90;;;;;;6399031;22;20029;-70
2021/01/02 00:14:20;;;;;;;7.00;2.50;;;23.10;46.00;;;;;;6397149;22;20023;-75
2021/01/02 00:16:58;;;;;;;7.03;2.72;;;23.10;46.10;;;;;;6398785;22;20065;-74
2021/01/02 00:19:30;;;;;;;5.15;2.03;;;23.10;46.20;;;;;;6399026;22;20005;-75
2021/01/02 00:22:48;;;;;;;11.07;2.30;;;23.10;46.30;;;;;;6397749;22;20457;-74
2021/01/02 00:25:55;;;;;;;6.50;1.85;;;23.00;46.40;;;;;;6397202;22;20009;-73
2021/01/02 00:28:46;;;;;;;10.15;2.72;;;23.00;46.50;;;;;;6398446;22;20001;-75
2021/01/02 00:31:35;;;;;;;8.57;1.83;;;23.00;46.60;;;;;;6396794;22;20002;-71
2021/01/02 00:34:08;;;;;;;4.38;1.83;;;23.00;46.60;;;;;;6393028;22;20002;-73
2021/01/02 00:37:22;;;;;;;6.68;1.65;;;23.00;46.70;;;;;;6398178;22;19998;-70
2021/01/02 00:40:04;;;;;;;7.60;1.90;;;23.00;46.80;;;;;;6397186;22;20037;-70
2021/01/02 00:43:10;;;;;;;10.45;2.22;;;23.00;46.90;;;;;;6398766;22;20016;-71
2021/01/02 00:46:16;;;;;;;4.22;1.63;;;22.90;46.80;;;;;;6398444;22;20029;-71
2021/01/02 00:48:47;;;;;;;5.18;1.80;;;22.90;46.80;;;;;;6396570;22;20001;-71
2021/01/02 00:51:53;;;;;;;9.57;2.00;;;22.90;46.80;;;;;;6370911;22;20375;-75
2021/01/02 00:55:14;;;;;;;5.60;1.58;;;22.90;46.80;;;;;;6397727;22;20005;-72
2021/01/02 00:57:49;;;;;;;7.45;2.13;;;22.90;46.80;;;;;;6396339;22;20005;-74
2021/01/02 01:00:56;;;;;;;5.57;1.40;;;22.90;47.00;;;;;;6397820;22;20421;-73
2021/01/02 01:03:42;;;;;;;5.57;1.35;;;22.90;47.00;;;;;;6397897;22;20014;-75
2021/01/02 01:06:48;;;;;;;6.78;1.80;;;22.90;47.00;;;;;;6394436;22;20363;-73
2021/01/02 01:09:17;;;;;;;10.07;1.92;;;22.90;47.00;;;;;;6396577;22;20029;-74
2021/01/02 01:12:23;;;;;;;6.10;1.60;;;22.80;47.00;;;;;;6398172;22;20029;-72
2021/01/02 01:14:50;;;;;;;6.50;1.88;;;22.80;47.00;;;;;;6396242;22;20042;-70
2021/01/02 01:17:32;;;;;;;9.27;1.60;;;22.80;47.00;;;;;;6397982;22;20397;-72
2021/01/02 01:20:03;;;;;;;8.82;1.85;;;22.80;47.00;;;;;;6397721;22;20030;-73
2021/01/02 01:22:35;;;;;;;5.15;1.17;;;22.80;47.00;;;;;;6396216;22;20018;-71
2021/01/02 01:25:05;;;;;;;4.95;1.30;;;22.80;47.10;;;;;;6397735;22;20072;-71
2021/01/02 01:27:40;;;;;;;7.75;2.85;;;22.80;47.10;;;;;;6395676;22;19990;-70
2021/01/02 01:30:19;;;;;;;5.53;2.50;;;22.80;47.20;;;;;;6398063;22;19998;-74
2021/01/02 01:33:20;;;;;;;4.72;2.00;;;22.80;47.30;;;;;;6397083;22;20020;-71
2021/01/02 01:35:49;;;;;;;5.72;1.95;;;22.80;47.40;;;;;;6396342;22;20006;-75
2021/01/02 01:38:34;;;;;;;5.55;2.05;;;22.80;47.40;;;;;;6398201;22;20001;-74
2021/01/02 01:41:37;;;;;;;7.70;1.80;;;22.70;47.40;;;;;;6368941;22;20425;-71
2021/01/02 01:44:13;;;;;;;7.60;1.83;;;22.70;47.50;;;;;;6396433;22;20010;-74
2021/01/02 01:46:48;;;;;;;3.28;1.60;;;22.70;47.50;;;;;;6397460;22;19998;-74
2021/01/02 01:49:39;;;;;;;8.95;1.70;;;22.70;47.50;;;;;;6396446;22;20421;-74
2021/01/02 01:52:43;;;;;;;6.95;1.40;;;22.70;47.50;;;;;;6397093;22;20006;-75
2021/01/02 01:55:49;;;;;;;5.82;1.85;;;22.70;47.60;;;;;;6397606;22;20083;-70
2021/01/02 01:58:44;;;;;;;5.47;1.80;;;22.70;47.60;;;;;;6396802;22;20082;-75
2021/01/02 02:01:50;;;;;;;7.53;1.55;;;22.60;47.60;;;;;;6368481;22;20013;-71
2021/01/02 02:04:45;;;;;;;8.18;1.77;;;22.60;47.50;;;;;;6395404;22;20147;-76
2021/01/02 02:08:00;;;;;;;7.00;2.15;;;22.60;47.50;;;;;;6395193;22;20080;-75
2021/01/02 02:10:50;;;;;;;4.65;1.77;;;22.60;47.50;;;;;;6395622;22;20006;-73
2021/01/02 02:13:40;;;;;;;8.98;2.20;;;22.50;47.40;;;;;;6397153;22;20006;-74
2021/01/02 02:16:46;;;;;;;6.63;2.42;;;22.60;47.50;;;;;;6395445;22;20009;-70
2021/01/02 02:19:55;;;;;;;5.85;1.50;;;22.50;47.50;;;;;;6393603;22;19998;-73
2021/01/02 02:22:28;;;;;;;7.90;2.30;;;22.50;47.80;;;;;;6391145;22;20002;-75
2021/01/02 02:25:34;;;;;;;16.00;2.33;;;22.50;47.90;;;;;;6396851;22;20005;-75
2021/01/02 02:28:01;;;;;;;6.80;1.80;;;22.50;47.90;;;;;;6395759;22;20402;-75
2021/01/02 02:31:09;;;;;;;7.40;2.17;;;22.50;48.00;;;;;;6369426;22;20005;-74
2021/01/02 02:33:37;;;;;;;10.43;2.70;;;22.50;48.00;;;;;;6395046;22;19998;-72
2021/01/02 02:36:43;;;;;;;7.82;1.90;;;22.50;48.00;;;;;;6396234;22;20328;-75
2021/01/02 02:39:49;;;;;;;7.32;2.03;;;22.40;48.00;;;;;;6397004;22;20550;-71
2021/01/02 02:42:17;;;;;;;5.65;1.73;;;22.50;48.00;;;;;;6397356;22;19994;-74
2021/01/02 02:45:08;;;;;;;9.30;2.00;;;22.50;48.10;;;;;;6396081;22;20006;-75
2021/01/02 02:48:05;;;;;;;4.53;1.90;;;22.40;48.10;;;;;;6397138;22;20074;-72
2021/01/02 02:51:11;;;;;;;3.28;2.17;;;22.40;48.10;;;;;;6368661;22;20378;-68
2021/01/02 02:54:15;;;;;;;5.22;1.75;;;22.40;48.20;;;;;;6395115;22;20009;-68
2021/01/02 02:57:10;;;;;;;5.72;2.47;;;22.40;48.20;;;;;;6369473;22;20006;-71
2021/01/02 02:59:36;;;;;;;9.73;2.10;;;22.40;48.20;;;;;;6343413;22;20466;-69
2021/01/02 03:02:45;;;;;;;4.38;1.60;;;22.40;48.20;;;;;;6398876;22;20002;-70
2021/01/02 03:05:14;;;;;;;5.35;1.73;;;22.40;48.30;;;;;;6399804;22;20094;-73
2021/01/02 03:08:23;;;;;;;6.65;1.90;;;22.30;48.20;;;;;;6398608;22;20029;-73
2021/01/02 03:11:29;;;;;;;4.00;1.10;;;22.30;48.10;;;;;;6397782;22;19994;-72
2021/01/02 03:14:35;;;;;;;3.05;1.05;;;22.30;48.00;;;;;;6398869;22;20073;-69
2021/01/02 03:17:42;;;;;;;4.70;1.35;;;22.30;47.80;;;;;;6399196;22;20002;-72
2021/01/02 03:20:48;;;;;;;5.30;2.13;;;22.30;47.70;;;;;;6398416;22;20005;-74
2021/01/02 03:24:00;;;;;;;6.80;1.38;;;22.30;47.90;;;;;;6398588;22;20433;-73
2021/01/02 03:26:26;;;;;;;6.80;1.80;;;22.30;47.60;;;;;;6392955;22;20021;-71
2021/01/02 03:28:54;;;;;;;8.18;2.00;;;22.30;47.60;;;;;;6398314;22;20077;-72
2021/01/02 03:31:21;;;;;;;3.25;1.45;;;22.30;47.70;;;;;;6397540;22;20426;-71
2021/01/02 03:33:48;;;;;;;7.07;1.73;;;22.30;47.70;;;;;;6398733;22;20108;-70
2021/01/02 03:36:54;;;;;;;11.68;4.65;;;22.30;47.80;;;;;;6398973;22;20001;-69
2021/01/02 03:39:29;;;;;;;8.68;5.60;;;22.30;47.80;;;;;;6398703;22;20065;-71
2021/01/02 03:41:55;;;;;;;7.82;4.55;;;22.20;47.80;;;;;;6342937;22;20009;-71
2021/01/02 03:44:22;;;;;;;8.52;4.10;;;22.20;47.90;;;;;;6398136;22;20062;-70
2021/01/02 03:47:26;;;;;;;6.07;2.67;;;22.20;47.90;;;;;;6398312;22;20321;-74
2021/01/02 03:50:32;;;;;;;5.15;1.70;;;22.20;47.90;;;;;;6369730;22;20070;-72
2021/01/02 03:52:58;;;;;;;10.50;2.50;;;22.20;48.00;;;;;;6398895;22;20069;-74
2021/01/02 03:56:04;;;;;;;7.75;1.83;;;22.20;48.00;;;;;;6399031;22;20006;-69
2021/01/02 03:58:51;;;;;;;5.28;1.77;;;22.20;48.00;;;;;;6398008;22;20078;-73
2021/01/02 04:01:57;;;;;;;5.32;1.90;;;22.20;48.00;;;;;;6371534;22;20005;-73
2021/01/02 04:04:25;;;;;;;8.13;1.55;;;22.20;48.10;;;;;;6398408;22;20005;-73
2021/01/02 04:07:33;;;;;;;9.43;4.15;;;22.20;48.10;;;;;;6397510;22;20369;-70
2021/01/02 04:10:00;;;;;;;10.65;5.38;;;22.20;48.20;;;;;;6398752;22;20057;-68
2021/01/02 04:12:44;;;;;;;7.22;4.45;;;22.20;48.20;;;;;;6397462;22;20002;-75
2021/01/02 04:15:47;;;;;;;5.25;3.00;;;22.20;48.30;;;;;;6397969;22;19998;-75
2021/01/02 04:18:13;;;;;;;5.60;2.25;;;22.20;48.30;;;;;;6370727;22;20002;-73
2021/01/02 04:21:19;;;;;;;6.32;2.10;;;22.20;48.30;;;;;;6397743;22;20715;-75
2021/01/02 04:23:54;;;;;;;5.43;2.85;;;22.20;48.30;;;;;;6397460;22;20009;-72
2021/01/02 04:26:22;;;;;;;3.83;1.45;;;22.20;48.20;;;;;;6370018;22;20017;-73
2021/01/02 04:28:53;;;;;;;3.55;1.60;;;22.20;48.20;;;;;;6397727;22;20002;-75
2021/01/02 04:32:00;;;;;;;9.43;2.53;;;22.20;48.20;;;;;;6398062;22;19997;-72
2021/01/02 04:34:27;;;;;;;5.63;1.63;;;22.20;48.20;;;;;;6397870;22;19994;-72
2021/01/02 04:36:54;;;;;;;7.15;1.58;;;22.20;48.40;;;;;;6369165;22;20368;-72
2021/01/02 04:39:57;;;;;;;3.08;1.67;;;22.20;48.40;;;;;;6398416;22;20313;-68
2021/01/02 04:43:00;;;;;;;6.32;4.03;;;22.20;48.50;;;;;;6369649;22;20460;-71
2021/01/02 04:45:55;;;;;;;8.32;3.08;;;22.20;48.50;;;;;;6369685;22;20006;-72
2021/01/02 04:49:01;;;;;;;8.68;2.10;;;22.20;48.50;;;;;;6370363;22;20066;-70
2021/01/02 04:51:28;;;;;;;4.65;1.60;;;22.20;48.50;;;;;;6397394;22;19998;-73
2021/01/02 04:54:34;;;;;;;7.80;1.60;;;22.20;48.60;;;;;;6397464;22;20013;-68
2021/01/02 04:57:00;;;;;;;7.47;2.28;;;22.20;48.60;;;;;;6397857;22;20006;-72
2021/01/02 04:59:27;;;;;;;8.63;2.50;;;22.20;48.60;;;;;;6397100;22;20417;-70
2021/01/02 05:01:54;;;;;;;5.57;2.55;;;22.20;48.70;;;;;;6398141;22;20001;-72
2021/01/02 05:04:21;;;;;;;9.75;3.15;;;22.20;48.70;;;;;;6397123;22;20009;-70
2021/01/02 05:07:07;;;;;;;7.72;3.00;;;22.20;48.70;;;;;;6397965;22;20002;-68
2021/01/02 05:10:13;;;;;;;10.90;2.78;;;22.20;48.80;;;;;;6398434;22;20002;-68
2021/01/02 05:12:39;;;;;;;10.20;2.55;;;22.30;49.00;;;;;;6397075;22;20022;-69
2021/01/02 05:15:28;;;;;;;5.82;1.88;;;22.30;49.00;;;;;;6398625;22;20005;-67
2021/01/02 05:18:34;;;;;;;5.93;2.05;;;22.20;48.90;;;;;;6398210;22;19998;-71
2021/01/02 05:21:40;;;;;;;12.65;2.28;;;22.20;49.20;;;;;;6395981;22;20002;-69
2021/01/02 05:24:08;;;;;;;7.65;1.20;;;22.20;49.40;;;;;;6396963;22;20010;-69
2021/01/02 05:26:54;;;;;;;6.13;1.40;;;22.20;49.40;;;;;;6397914;22;20010;-69
2021/01/02 05:29:23;;;;;;;7.60;2.05;;;22.20;49.30;;;;;;6396613;22;20271;-68
2021/01/02 05:31:58;;;;;;;7.95;2.20;;;22.20;49.30;;;;;;6398492;22;20002;-68
2021/01/02 05:35:04;;;;;;;9.88;2.33;;;22.20;49.60;;;;;;6396381;22;19998;-68
2021/01/02 05:37:33;;;;;;;10.75;1.50;;;22.30;50.10;;;;;;6393353;22;20033;-70
2021/01/02 05:40:00;;;;;;;5.88;1.50;;;22.30;49.10;;;;;;6369614;22;20009;-71
2021/01/02 05:42:28;;;;;;;4.88;1.60;;;22.30;49.00;;;;;;6395222;22;20004;-69
2021/01/02 05:44:58;;;;;;;7.47;2.45;;;22.30;48.70;;;;;;6397169;22;20025;-68
2021/01/02 05:47:29;;;;;;;10.32;2.08;;;22.30;48.70;;;;;;6396987;22;19994;-66
2021/01/02 05:49:58;;;;;;;10.43;2.42;;;22.40;48.40;;;;;;6396403;22;20429;-69
2021/01/02 05:53:04;;;;;;;13.40;1.75;;;22.40;48.40;;;;;;6397519;22;19998;-70
2021/01/02 05:55:33;;;;;;;5.63;1.58;;;22.40;48.30;;;;;;6395816;22;20039;-73
2021/01/02 05:58:39;;;;;;;5.15;2.20;;;22.40;48.30;;;;;;6370139;22;20320;-72
2021/01/02 06:01:25;;;;;;;6.43;1.63;;;22.40;48.50;;;;;;6397735;22;20070;-73
2021/01/02 06:04:31;;;;;;;9.70;4.53;;;22.50;48.50;;;;;;6398136;22;20017;-71
2021/01/02 06:07:47;;;;;;;10.98;6.43;;;22.50;48.30;;;;;;6397095;22;20457;-72
2021/01/02 06:10:53;;;;;;;10.20;4.88;;;22.60;48.10;;;;;;6397694;22;20005;-73
2021/01/02 06:14:00;;;;;;;9.88;3.60;;;22.60;47.90;;;;;;6396742;22;20046;-75
2021/01/02 06:17:06;;;;;;;6.10;4.03;;;22.70;47.80;;;;;;6396519;22;20063;-75
2021/01/02 06:20:12;;;;;;;7.25;3.00;;;22.80;47.70;;;;;;6395919;22;20002;-75
2021/01/02 06:23:19;;;;;;;14.10;2.45;;;22.80;47.40;;;;;;6397043;22;20119;-75
2021/01/02 06:26:28;;;;;;;14.82;10.25;;;22.90;47.30;;;;;;6395770;22;20463;-78
2021/01/02 06:29:34;;;;;;;12.10;8.10;;;22.90;47.00;;;;;;6397041;22;20005;-75
2021/01/02 06:32:40;;;;;;;16.02;5.82;;;23.00;46.60;;;;;;6396826;22;20088;-75
2021/01/02 06:35:10;;;;;;;8.43;4.75;;;23.00;46.60;;;;;;6395791;22;20429;-75
2021/01/02 06:37:49;;;;;;;7.20;3.55;;;23.10;46.60;;;;;;6396981;22;20002;-79
2021/01/02 06:41:04;;;;;;;7.72;3.70;;;23.10;47.30;;;;;;6369212;22;20009;-75
2021/01/02 06:44:20;;;;;;;14.20;4.18;;;23.20;46.80;;;;;;6395958;22;20037;-79
2021/01/02 06:47:33;;;;;;;11.73;3.13;;;23.20;46.80;;;;;;6396637;22;20009;-73
2021/01/02 06:50:39;;;;;;;6.05;2.55;;;23.30;46.90;;;;;;6392762;22;20006;-74
2021/01/02 06:53:57;;;;;;;5.65;1.88;;;23.30;46.80;;;;;;6397152;22;19998;-76
2021/01/02 06:57:09;;;;;;;8.80;1.65;;;23.40;46.70;;;;;;6395754;22;20429;-72
2021/01/02 07:00:16;;;;;;;8.68;2.38;;;23.50;46.50;;;;;;6393470;22;20005;-73
2021/01/02 07:03:02;;;;;;;;;;;23.50;46.20;;;;;;6396986;22;20017;-74
2021/01/02 07:06:23;;;;;;;8.63;5.25;;;23.60;46.10;;;;;;6395527;22;19898;-69
2021/01/02 07:09:19;;;;;;;26.50;5.97;;;23.60;46.10;;;;;;6390333;22;20311;-71
2021/01/02 07:12:34;;;;;;;28.13;5.68;;;23.70;46.00;;;;;;6395933;22;20012;-71
2021/01/02 07:15:40;;;;;;;23.40;4.47;;;23.70;45.90;;;;;;6396829;22;19997;-69
2021/01/02 07:18:35;;;;;;;;;;;23.80;45.70;;;;;;6392908;22;19998;-69
2021/01/02 07:21:53;;;;;;;13.70;2.67;;;23.90;45.60;;;;;;6362183;22;19898;-69
2021/01/02 07:24:31;;;;;;;11.52;2.40;;;24.00;45.20;;;;;;6396054;22;20378;-69
2021/01/02 07:27:03;;;;;;;12.30;3.05;;;24.10;45.00;;;;;;6395447;22;20075;-70
2021/01/02 07:29:35;;;;;;;20.50;5.78;;;24.10;44.90;;;;;;6395988;22;19998;-69
2021/01/02 07:32:10;;;;;;;12.30;4.93;;;24.30;44.80;;;;;;6396666;22;20002;-68
2021/01/02 07:34:38;;;;;;;7.00;2.85;;;24.50;44.20;;;;;;6394578;22;20085;-73
2021/01/02 07:37:13;;;;;;;11.77;2.97;;;24.60;43.70;;;;;;6396465;22;19990;-66
2021/01/02 07:39:40;;;;;;;5.00;2.25;;;24.60;43.70;;;;;;6395313;22;20094;-67
2021/01/02 07:42:10;;;;;;;6.43;1.65;;;24.60;43.80;;;;;;6397006;22;20894;-70
2021/01/02 07:44:40;;;;;;;10.85;2.47;;;24.70;43.90;;;;;;6395795;22;20662;-69
2021/01/02 07:47:08;;;;;;;8.73;1.50;;;24.80;42.80;;;;;;6396590;22;20350;-67
2021/01/02 07:49:35;;;;;;;4.97;1.20;;;24.90;41.90;;;;;;6370439;22;20047;-69
2021/01/02 07:52:01;;;;;;;3.53;2.28;;;25.10;41.50;;;;;;6397138;22;20081;-70
2021/01/02 07:54:29;;;;;;;3.60;1.63;;;25.20;40.50;;;;;;6398848;22;20001;-67
2021/01/02 07:56:55;;;;;;;6.25;1.77;;;25.30;40.10;;;;;;6397660;22;20005;-68
2021/01/02 07:59:38;;;;;;;8.95;3.50;;;25.50;41.10;;;;;;6398792;22;19998;-68
2021/01/02 08:02:12;;;;;;;8.70;2.70;;;25.60;41.70;;;;;;6398025;22;20031;-72
2021/01/02 08:04:38;;;;;;;16.13;5.00;;;25.60;42.50;;;;;;6397729;22;20482;-69
2021/01/02 08:07:07;;;;;;;19.20;12.13;;;25.70;43.20;;;;;;6398618;22;20439;-69
2021/01/02 08:09:35;;;;;;;14.30;6.47;;;25.70;43.50;;;;;;6397554;22;20000;-72
2021/01/02 08:12:09;;;;;;;6.20;1.77;;;25.80;43.40;;;;;;6396719;22;20025;-67
2021/01/02 08:14:38;;;;;;;10.27;3.00;;;25.80;43.40;;;;;;6397158;22;20006;-69
2021/01/02 08:17:06;;;;;;;7.97;3.00;;;25.70;43.30;;;;;;6398013;22;20410;-68
2021/01/02 08:19:46;;;;;;;6.57;2.60;;;25.70;43.70;;;;;;6398275;22;20073;-68
2021/01/02 08:22:28;;;;;;;8.10;2.85;;;25.60;43.90;;;;;;6397537;22;20005;-68
2021/01/02 08:24:59;;;;;;;8.15;2.38;;;25.60;43.90;;;;;;6398993;22;20096;-67
2021/01/02 08:27:29;;;;;;;7.40;1.88;;;25.60;43.80;;;;;;6397572;22;20337;-69
2021/01/02 08:29:56;;;;;;;14.38;2.55;;;25.80;43.80;;;;;;6398633;22;20002;-67
2021/01/02 08:32:26;;;;;;;7.90;2.22;;;25.90;42.90;;;;;;6398154;22;20002;-67
2021/01/02 08:34:53;;;;;;;11.23;1.92;;;26.10;42.80;;;;;;6397544;22;20024;-70
2021/01/02 08:37:21;;;;;;;12.80;2.13;;;26.30;42.70;;;;;;6370840;22;19998;-67
2021/01/02 08:39:47;;;;;;;12.20;3.05;;;26.40;41.90;;;;;;6397104;22;19997;-67
2021/01/02 08:42:14;;;;;;;12.50;2.53;;;26.70;40.60;;;;;;6398904;22;20009;-70
2021/01/02 08:44:44;;;;;;;12.50;2.78;;;26.80;39.60;;;;;;6397361;22;20010;-68
2021/01/02 08:47:22;;;;;;;5.10;2.15;;;27.00;39.20;;;;;;6398795;22;20005;-69
2021/01/02 08:49:48;;;;;;;5.57;2.22;;;27.20;38.10;;;;;;6398250;22;20055;-75
2021/01/02 08:52:15;;;;;;;13.32;2.05;;;27.40;36.70;;;;;;6397382;22;19990;-72
2021/01/02 08:55:27;;;;;;;4.20;1.65;;;27.50;35.90;;;;;;6394542;22;20001;-70
2021/01/02 08:58:33;;;;;;;7.93;1.50;;;27.60;37.30;;;;;;6393810;22;20001;-69
2021/01/02 09:01:39;;;;;;;16.45;3.20;;;27.80;37.70;;;;;;6395804;22;20469;-69
2021/01/02 09:04:51;;;;;;;10.07;3.75;;;27.90;37.20;;;;;;6397628;22;20017;-69
2021/01/02 09:07:57;;;;;;;69.85;54.70;;;27.90;38.30;;;;;;6397680;22;20002;-70
2021/01/02 09:11:04;;;;;;;12.02;3.70;;;27.90;38.70;;;;;;6396083;22;20001;-72
2021/01/02 09:14:10;;;;;;;9.95;2.10;;;27.90;39.30;;;;;;6396646;22;20002;-71
2021/01/02 09:17:18;;;;;;;11.20;3.35;;;27.90;38.90;;;;;;6398080;22;20418;-79
2021/01/02 09:20:33;;;;;;;22.08;16.63;;;27.90;39.20;;;;;;6397394;22;20002;-68
2021/01/02 09:23:55;;;;;;;7.72;2.63;;;27.90;39.10;;;;;;6396228;22;20029;-69
2021/01/02 09:27:01;;;;;;;7.90;2.10;;;28.00;39.20;;;;;;6396663;22;20052;-68
2021/01/02 09:30:07;;;;;;;9.35;2.38;;;28.10;38.70;;;;;;6396939;22;20006;-72
2021/01/02 09:33:13;;;;;;;8.82;3.60;;;28.20;38.30;;;;;;6395420;22;19994;-72
2021/01/02 09:36:21;;;;;;;7.97;2.78;;;28.10;38.20;;;;;;6396335;22;19998;-70
2021/01/02 09:39:28;;;;;;;6.65;2.60;;;28.00;38.60;;;;;;6397148;22;20001;-69
2021/01/02 09:42:34;;;;;;;134.30;119.55;;;27.90;38.90;;;;;;6397355;22;20055;-72
2021/01/02 09:45:41;;;;;;;76.50;66.05;;;27.90;39.20;;;;;;6394519;22;20067;-69
2021/01/02 09:48:09;;;;;;;56.25;49.38;;;27.90;39.20;;;;;;6396345;22;19994;-72
2021/01/02 09:50:36;;;;;;;45.67;39.08;;;27.90;39.30;;;;;;6397128;22;20001;-70
2021/01/02 09:53:04;;;;;;;33.72;29.08;;;27.90;39.60;;;;;;6396153;22;20330;-74
2021/01/02 09:55:30;;;;;;;31.80;22.00;;;27.90;39.70;;;;;;6397669;22;19998;-73
2021/01/02 09:57:57;;;;;;;26.00;17.33;;;28.00;39.50;;;;;;6396240;22;20005;-73
2021/01/02 10:00:24;;;;;;;17.83;14.00;;;28.10;39.60;;;;;;6397690;22;20073;-75
2021/01/02 10:02:51;;;;;;;20.92;12.27;;;28.10;39.40;;;;;;6397068;22;20421;-77
2021/01/02 10:05:19;;;;;;;12.13;9.23;;;28.10;39.30;;;;;;6397168;22;20009;-71
2021/01/02 10:07:46;;;;;;;14.65;6.90;;;28.20;39.50;;;;;;6397586;22;19998;-73
2021/01/02 10:10:15;;;;;;;14.35;5.97;;;28.20;39.50;;;;;;6396025;22;20033;-73
2021/01/02 10:12:43;;;;;;;19.77;16.40;;;28.30;38.80;;;;;;6397604;22;20356;-71
2021/01/02 10:15:11;;;;;;;17.10;11.88;;;28.40;39.40;;;;;;6396811;22;20030;-71
2021/01/02 10:17:38;;;;;;;16.38;7.53;;;28.50;39.60;;;;;;6397541;22;20081;-68
2021/01/02 10:20:06;;;;;;;59.40;52.67;;;28.50;39.50;;;;;;6396949;22;20077;-72
2021/01/02 10:22:32;;;;;;;43.40;29.20;;;28.60;40.20;;;;;;6397008;22;19998;-72
2021/01/02 10:24:59;;;;;;;16.00;11.15;;;28.60;39.90;;;;;;6397507;22;19994;-71
2021/01/02 10:27:27;;;;;;;14.77;8.88;;;28.60;39.80;;;;;;6396131;22;20010;-73
2021/01/02 10:29:55;;;;;;;12.77;6.55;;;28.60;39.90;;;;;;6397940;22;19998;-71
2021/01/02 10:32:24;;;;;;;11.60;3.83;;;28.70;40.00;;;;;;6396013;22;20058;-69
2021/01/02 10:34:50;;;;;;;7.68;2.58;;;28.80;39.60;;;;;;6397310;22;20334;-71
2021/01/02 10:37:24;;;;;;;11.63;3.25;;;28.90;39.30;;;;;;6396221;22;20022;-72
2021/01/02 10:39:51;;;;;;;6.32;2.35;;;28.90;39.10;;;;;;6397544;22;20024;-72
2021/01/02 10:42:25;;;;;;;7.32;2.08;;;28.90;39.10;;;;;;6396967;22;20005;-70
2021/01/02 10:44:52;;;;;;;7.28;2.65;;;28.90;38.60;;;;;;6395744;22;20040;-71
2021/01/02 10:47:23;;;;;;;13.10;4.40;;;28.90;38.60;;;;;;6397790;22;20069;-70
2021/01/02 10:49:50;;;;;;;10.88;5.57;;;29.00;38.50;;;;;;6396961;22;20025;-73
2021/01/02 10:52:19;;;;;;;7.45;4.00;;;29.00;38.20;;;;;;6399320;22;20081;-73
2021/01/02 10:54:47;;;;;;;8.95;3.47;;;29.00;38.00;;;;;;6397092;22;20006;-72
2021/01/02 10:57:14;;;;;;;7.13;3.38;;;29.10;38.10;;;;;;6397144;22;19994;-71
2021/01/02 10:59:48;;;;;;;3.90;2.10;;;29.10;37.50;;;;;;6396967;22;20005;-72
2021/01/02 11:02:16;;;;;;;6.45;2.45;;;29.20;37.60;;;;;;6395552;22;19998;-74
2021/01/02 11:04:43;;;;;;;8.13;2.40;;;29.20;37.60;;;;;;6396951;22;20016;-71
2021/01/02 11:07:10;;;;;;;9.77;2.45;;;29.30;37.80;;;;;;6395946;22;20024;-70
2021/01/02 11:09:37;;;;;;;11.23;3.75;;;29.30;37.90;;;;;;6395927;22;20447;-71
2021/01/02 11:12:05;;;;;;;5.20;2.58;;;29.40;38.10;;;;;;6396328;22;20421;-72
2021/01/02 11:14:32;;;;;;;9.57;3.38;;;29.40;38.00;;;;;;6396420;22;20422;-72
2021/01/02 11:17:00;;;;;;;8.85;3.03;;;29.50;37.90;;;;;;6396910;22;19994;-71
2021/01/02 11:19:29;;;;;;;6.65;2.13;;;29.50;37.80;;;;;;6396105;22;20413;-70
2021/01/02 11:21:58;;;;;;;10.95;4.30;;;29.60;37.80;;;;;;6398490;22;20006;-70
2021/01/02 11:24:27;;;;;;;9.93;3.05;;;29.60;37.90;;;;;;6397287;22;20033;-74
2021/01/02 11:26:56;;;;;;;7.38;3.17;;;29.70;38.50;;;;;;6398583;22;20613;-71
2021/01/02 11:29:26;;;;;;;7.72;2.53;;;29.70;38.70;;;;;;6392549;22;20029;-72
2021/01/02 11:31:52;;;;;;;6.00;3.10;;;29.80;38.90;;;;;;6398833;22;20005;-75
2021/01/02 11:34:20;;;;;;;10.15;3.10;;;29.80;38.70;;;;;;6370412;22;20303;-74
2021/01/02 11:36:52;;;;;;;11.75;3.70;;;29.90;38.60;;;;;;6396558;22;19998;-73
2021/01/02 11:39:19;;;;;;;8.90;3.65;;;29.90;38.90;;;;;;6370335;22;20356;-71
2021/01/02 11:41:46;;;;;;;13.23;4.65;;;29.90;39.10;;;;;;6397538;22;20026;-74
2021/01/02 11:44:52;;;;;;;10.20;3.28;;;29.90;39.20;;;;;;6398079;22;20013;-75
2021/01/02 11:47:58;;;;;;;9.05;2.90;;;29.90;39.40;;;;;;6398597;22;20432;-71
2021/01/02 11:50:25;;;;;;;13.90;3.20;;;29.90;39.80;;;;;;6397831;22;19998;-71
2021/01/02 11:52:51;;;;;;;15.23;3.30;;;29.90;40.00;;;;;;6399954;22;19998;-70
2021/01/02 11:55:18;;;;;;;10.55;4.55;;;29.90;39.50;;;;;;6397849;22;20077;-72
2021/01/02 11:57:44;;;;;;;9.57;3.28;;;30.00;39.70;;;;;;6398362;22;20113;-70
2021/01/02 12:00:12;;;;;;;13.93;3.50;;;30.10;39.50;;;;;;6398580;22;20002;-70
2021/01/02 12:02:41;;;;;;;8.10;2.50;;;30.00;39.30;;;;;;6397683;22;19989;-70
2021/01/02 12:05:08;;;;;;;16.63;7.07;;;30.10;39.60;;;;;;6398725;22;20018;-70
2021/01/02 12:07:36;;;;;;;10.77;4.55;;;30.10;39.80;;;;;;6396847;22;20440;-70
2021/01/02 12:10:05;;;;;;;14.40;4.00;;;30.00;39.80;;;;;;6398878;22;20305;-70
2021/01/02 12:12:31;;;;;;;8.75;3.55;;;30.00;40.20;;;;;;6397241;22;20006;-72
2021/01/02 12:14:58;;;;;;;11.15;3.83;;;30.00;40.40;;;;;;6398498;22;20027;-70
2021/01/02 12:17:26;;;;;;;12.57;4.35;;;30.10;40.70;;;;;;6397694;22;20365;-70
2021/01/02 12:19:53;;;;;;;15.65;4.57;;;30.10;40.80;;;;;;6398004;22;20033;-70
2021/01/02 12:22:21;;;;;;;12.60;3.97;;;30.20;41.40;;;;;;6398147;22;20001;-70
2021/01/02 12:24:48;;;;;;;13.88;4.45;;;30.20;41.30;;;;;;6397117;22;20089;-70
2021/01/02 12:27:15;;;;;;;11.10;4.00;;;30.30;41.50;;;;;;6398476;22;20010;-70
2021/01/02 12:29:43;;;;;;;11.85;4.50;;;30.40;41.70;;;;;;6397572;22;20012;-70
2021/01/02 12:32:12;;;;;;;10.65;3.45;;;30.40;41.90;;;;;;6398057;22;20010;-70
2021/01/02 12:34:45;;;;;;;14.20;4.65;;;30.40;42.10;;;;;;6397447;22;20002;-70
2021/01/02 12:37:14;;;;;;;12.38;4.00;;;30.40;42.40;;;;;;6397282;22;20009;-70
2021/01/02 12:39:42;;;;;;;13.18;3.70;;;30.50;42.40;;;;;;6398004;22;20016;-70
2021/01/02 12:42:10;;;;;;;13.75;4.28;;;30.40;42.50;;;;;;6396405;22;20008;-71
2021/01/02 12:44:36;;;;;;;11.38;5.10;;;30.50;42.70;;;;;;6398812;22;20033;-71
2021/01/02 12:47:13;;;;;;;11.88;3.50;;;30.40;43.00;;;;;;6396858;22;20077;-72
2021/01/02 12:49:42;;;;;;;17.73;4.90;;;30.40;43.10;;;;;;6397336;22;20006;-71
2021/01/02 12:52:09;;;;;;;17.00;5.10;;;30.40;44.00;;;;;;6397960;22;20025;-71
2021/01/02 12:54:36;;;;;;;13.32;4.88;;;30.40;43.60;;;;;;6397014;22;20006;-72
2021/01/02 12:57:04;;;;;;;20.05;4.43;;;30.40;43.70;;;;;;6398398;22;20089;-71
2021/01/02 12:59:34;;;;;;;17.73;4.68;;;30.50;43.80;;;;;;6396899;22;20006;-71
2021/01/02 13:02:06;;;;;;;17.75;5.40;;;30.40;43.80;;;;;;6397878;22;19998;-71
2021/01/02 13:04:33;;;;;;;13.10;4.00;;;30.30;44.30;;;;;;6396168;22;20039;-71
2021/01/02 13:07:02;;;;;;;17.20;4.55;;;30.30;44.40;;;;;;6396930;22;20002;-71
2021/01/02 13:09:29;;;;;;;17.52;4.55;;;30.30;44.40;;;;;;6397530;22;20054;-70
2021/01/02 13:11:57;;;;;;;16.73;5.70;;;30.20;44.50;;;;;;6397367;22;20033;-70
2021/01/02 13:14:27;;;;;;;11.95;3.88;;;30.20;44.50;;;;;;6397890;22;20001;-71
2021/01/02 13:17:14;;;;;;;21.75;4.80;;;30.20;44.60;;;;;;6396475;22;20004;-70
2021/01/02 13:19:45;;;;;;;14.73;4.80;;;30.20;44.60;;;;;;6397571;22;20435;-70
2021/01/02 13:22:12;;;;;;;16.90;4.15;;;30.20;44.60;;;;;;6397021;22;20022;-71
2021/01/02 13:24:43;;;;;;;15.23;4.65;;;30.20;44.50;;;;;;6396799;22;20578;-71
2021/01/02 13:27:11;;;;;;;16.05;4.53;;;30.10;44.60;;;;;;6397372;22;20441;-71
2021/01/02 13:29:42;;;;;;;17.60;4.93;;;30.10;44.70;;;;;;6396403;22;20012;-72
2021/01/02 13:32:10;;;;;;;18.90;9.00;;;30.10;44.60;;;;;;6396458;22;20024;-71
2021/01/02 13:34:41;;;;;;;17.08;4.60;;;30.10;44.60;;;;;;6394061;22;20081;-72
2021/01/02 13:37:08;;;;;;;15.00;5.40;;;30.10;44.50;;;;;;6395082;22;19998;-72
2021/01/02 13:39:36;;;;;;;18.55;5.88;;;30.10;44.50;;;;;;6393572;22;20001;-71
2021/01/02 13:42:02;;;;;;;16.17;5.15;;;30.10;44.70;;;;;;6394265;22;20337;-71
2021/01/02 13:44:32;;;;;;;15.60;4.50;;;30.10;44.70;;;;;;6396188;22;20389;-71
2021/01/02 13:47:00;;;;;;;11.57;3.83;;;30.00;44.60;;;;;;6394885;22;19998;-71
2021/01/02 13:49:27;;;;;;;11.52;4.13;;;30.00;44.70;;;;;;6396970;22;20017;-72
2021/01/02 13:51:54;;;;;;;14.68;4.93;;;30.00;44.90;;;;;;6396339;22;19994;-72
2021/01/02 13:54:21;;;;;;;16.63;5.50;;;30.00;44.80;;;;;;6396936;22;20002;-71
2021/01/02 13:56:50;;;;;;;14.18;4.57;;;29.90;44.80;;;;;;6396998;22;20002;-72
2021/01/02 13:59:19;;;;;;;14.65;3.90;;;30.00;44.90;;;;;;6397199;22;20417;-71